createdAt,value
2017-11-23T00:01:54.855Z,15.30
2017-11-23T00:04:25.377Z,15.20
2017-11-23T00:06:55.267Z,15.20
2017-11-23T00:09:24.147Z,15.30
2017-11-23T00:11:53.020Z,15.30
2017-11-23T00:14:22.565Z,15.20
2017-11-23T00:16:52.045Z,15.30
2017-11-23T00:19:21.350Z,15.20
2017-11-23T00:21:51.008Z,15.00
2017-11-23T00:24:20.482Z,14.90
2017-11-23T00:26:49.906Z,14.80
2017-11-23T00:29:20.876Z,14.80
2017-11-23T00:31:50.051Z,14.80
2017-11-23T00:34:19.884Z,14.70
2017-11-23T00:36:49.369Z,14.60
2017-11-23T00:39:20.587Z,14.50
2017-11-23T00:41:49.736Z,14.60
2017-11-23T00:44:19.167Z,14.60
2017-11-23T00:46:48.882Z,14.50
2017-11-23T00:49:17.924Z,14.50
2017-11-23T00:51:47.426Z,14.40
2017-11-23T00:54:16.916Z,14.40
2017-11-23T00:56:47.264Z,14.30
2017-11-23T00:59:16.797Z,14.30
2017-11-23T01:01:46.385Z,14.30
2017-11-23T01:04:16.953Z,14.40
2017-11-23T01:06:46.343Z,14.30
2017-11-23T01:09:16.079Z,14.30
2017-11-23T01:11:47.183Z,14.30
2017-11-23T01:14:32.423Z,14.30
2017-11-23T01:17:01.820Z,14.30
2017-11-23T01:19:31.518Z,14.30
2017-11-23T01:22:07.476Z,14.20
2017-11-23T01:24:37.392Z,14.20
2017-11-23T01:27:08.284Z,14.20
2017-11-23T01:29:39.943Z,14.20
2017-11-23T01:32:10.701Z,14.20
2017-11-23T01:34:40.584Z,14.20
2017-11-23T01:37:10.236Z,14.20
2017-11-23T01:39:40.500Z,14.10
2017-11-23T01:42:09.778Z,14.00
2017-11-23T01:44:39.430Z,14.00
2017-11-23T01:47:08.747Z,14.00
2017-11-23T01:49:38.034Z,14.10
2017-11-23T01:52:07.589Z,14.10
2017-11-23T01:54:37.078Z,14.20
2017-11-23T01:57:06.297Z,14.20
2017-11-23T01:59:36.695Z,14.20
2017-11-23T02:02:05.946Z,14.30
2017-11-23T02:04:35.465Z,14.40
2017-11-23T02:07:05.037Z,14.40
2017-11-23T02:09:34.755Z,14.50
2017-11-23T02:12:05.340Z,14.60
2017-11-23T02:14:35.065Z,14.50
2017-11-23T02:17:04.494Z,14.60
2017-11-23T02:19:35.507Z,14.60
2017-11-23T02:22:05.321Z,14.60
2017-11-23T02:24:34.878Z,14.50
2017-11-23T02:27:04.754Z,14.40
2017-11-23T02:29:34.753Z,14.40
2017-11-23T02:32:05.485Z,14.40
2017-11-23T02:34:35.151Z,14.40
2017-11-23T02:37:04.824Z,14.30
2017-11-23T02:39:34.222Z,14.30
2017-11-23T02:42:03.819Z,14.20
2017-11-23T02:44:33.298Z,14.30
2017-11-23T02:47:02.825Z,14.40
2017-11-23T02:49:32.407Z,14.30
2017-11-23T02:52:01.914Z,14.40
2017-11-23T02:54:31.855Z,14.40
2017-11-23T02:57:01.559Z,14.70
2017-11-23T02:59:31.367Z,14.40
2017-11-23T03:02:01.029Z,14.40
2017-11-23T03:04:31.069Z,14.30
2017-11-23T03:07:00.491Z,14.30
2017-11-23T03:09:30.091Z,14.40
2017-11-23T03:11:59.610Z,14.50
2017-11-23T03:14:28.606Z,14.60
2017-11-23T03:16:57.903Z,14.70
2017-11-23T03:19:27.499Z,14.90
2017-11-23T03:22:00.582Z,15.00
2017-11-23T03:24:29.824Z,15.20
2017-11-23T03:26:59.381Z,15.30
2017-11-23T03:29:30.027Z,15.30
2017-11-23T03:32:00.975Z,15.50
2017-11-23T03:34:30.307Z,15.70
2017-11-23T03:36:59.361Z,15.80
2017-11-23T03:39:28.970Z,15.90
2017-11-23T03:41:58.411Z,16.10
2017-11-23T03:44:28.549Z,16.20
2017-11-23T03:47:00.147Z,16.30
2017-11-23T03:49:31.489Z,16.30
2017-11-23T03:52:01.312Z,16.30
2017-11-23T03:54:30.149Z,16.40
2017-11-23T03:56:59.485Z,16.40
2017-11-23T03:59:29.171Z,16.40
2017-11-23T04:01:59.587Z,16.50
2017-11-23T04:04:29.266Z,16.50
2017-11-23T04:06:58.445Z,16.40
2017-11-23T04:09:27.817Z,16.40
2017-11-23T04:11:58.509Z,16.40
2017-11-23T04:14:28.830Z,16.20
2017-11-23T04:16:58.484Z,16.20
2017-11-23T04:19:27.403Z,16.20
2017-11-23T04:21:57.397Z,16.20
2017-11-23T04:24:27.264Z,16.20
2017-11-23T04:26:56.684Z,16.20
2017-11-23T04:29:26.101Z,16.20
2017-11-23T04:31:59.029Z,16.20
2017-11-23T04:34:28.502Z,16.20
2017-11-23T04:36:58.646Z,16.20
2017-11-23T04:39:27.634Z,16.20
2017-11-23T04:41:56.682Z,16.20
2017-11-23T04:44:26.529Z,16.10
2017-11-23T04:46:58.214Z,16.10
2017-11-23T04:49:31.857Z,16.20
2017-11-23T04:52:02.260Z,16.20
2017-11-23T04:54:33.150Z,16.20
2017-11-23T04:57:03.366Z,16.10
2017-11-23T04:59:32.584Z,16.10
2017-11-23T05:02:02.292Z,16.20
2017-11-23T05:04:32.621Z,16.10
2017-11-23T05:07:02.342Z,16.10
2017-11-23T05:14:48.135Z,15.90
2017-11-23T05:17:17.081Z,15.90
2017-11-23T05:19:46.045Z,15.90
2017-11-23T05:22:14.853Z,15.80
2017-11-23T05:24:45.258Z,15.90
2017-11-23T05:27:14.625Z,15.90
2017-11-23T05:29:44.139Z,15.90
2017-11-23T05:32:13.863Z,15.90
2017-11-23T05:34:45.609Z,15.90
2017-11-23T05:37:22.181Z,16.00
2017-11-23T05:39:51.681Z,15.90
2017-11-23T05:42:20.512Z,15.90
2017-11-23T05:44:49.374Z,15.90
2017-11-23T05:47:19.360Z,15.90
2017-11-23T05:49:48.721Z,15.90
2017-11-23T05:52:20.297Z,15.90
2017-11-23T05:54:50.069Z,16.00
2017-11-23T05:57:19.870Z,15.90
2017-11-23T05:59:49.234Z,15.90
2017-11-23T06:02:18.779Z,15.90
2017-11-23T06:04:47.732Z,15.90
2017-11-23T06:07:16.835Z,15.90
2017-11-23T06:09:46.177Z,16.00
2017-11-23T06:12:15.965Z,16.00
2017-11-23T06:14:45.684Z,16.00
2017-11-23T06:17:15.996Z,15.90
2017-11-23T06:19:45.483Z,15.90
2017-11-23T06:22:14.757Z,15.90
2017-11-23T06:24:45.182Z,15.90
2017-11-23T06:27:14.633Z,15.90
2017-11-23T06:29:44.021Z,15.90
2017-11-23T06:32:13.449Z,16.00
2017-11-23T06:34:42.622Z,16.00
2017-11-23T06:37:12.255Z,16.00
2017-11-23T06:39:42.832Z,16.00
2017-11-23T06:42:12.096Z,16.00
2017-11-23T06:44:41.565Z,16.00
2017-11-23T06:47:11.095Z,16.10
2017-11-23T06:49:40.638Z,16.10
2017-11-23T06:52:10.252Z,16.20
2017-11-23T06:54:39.930Z,16.10
2017-11-23T06:57:09.108Z,16.10
2017-11-23T06:59:38.565Z,16.20
2017-11-23T07:02:09.232Z,16.10
2017-11-23T07:04:38.470Z,16.10
2017-11-23T07:07:08.464Z,16.10
2017-11-23T07:09:38.068Z,16.00
2017-11-23T07:12:07.936Z,16.10
2017-11-23T07:14:41.421Z,16.10
2017-11-23T07:17:11.779Z,16.20
2017-11-23T07:19:41.562Z,16.20
2017-11-23T07:22:12.021Z,16.30
2017-11-23T07:24:42.319Z,16.30
2017-11-23T07:27:12.462Z,16.30
2017-11-23T07:29:42.057Z,16.30
2017-11-23T07:32:19.601Z,16.30
2017-11-23T07:34:50.016Z,16.30
2017-11-23T07:37:20.564Z,16.30
2017-11-23T07:39:52.830Z,16.40
2017-11-23T07:42:22.414Z,16.30
2017-11-23T07:44:52.027Z,16.40
2017-11-23T07:47:24.089Z,16.30
2017-11-23T07:49:54.081Z,16.40
2017-11-23T07:52:23.913Z,16.40
2017-11-23T07:54:53.374Z,16.40
2017-11-23T07:57:24.102Z,16.40
2017-11-23T07:59:54.706Z,16.50
2017-11-23T08:02:28.721Z,16.50
2017-11-23T08:05:00.160Z,16.40
2017-11-23T08:07:29.957Z,16.50
2017-11-23T08:09:58.756Z,16.40
2017-11-23T08:12:28.448Z,16.40
2017-11-23T08:14:58.046Z,16.40
2017-11-23T08:17:27.788Z,16.50
2017-11-23T08:19:57.055Z,16.40
2017-11-23T08:22:26.313Z,16.50
2017-11-23T08:24:56.212Z,16.40
2017-11-23T08:27:25.773Z,16.40
2017-11-23T08:29:55.580Z,16.30
2017-11-23T08:32:25.207Z,16.10
2017-11-23T08:34:53.990Z,16.10
2017-11-23T08:37:22.825Z,16.10
2017-11-23T08:39:52.206Z,16.10
2017-11-23T08:42:21.888Z,16.10
2017-11-23T08:44:51.287Z,16.00
2017-11-23T08:47:20.783Z,16.00
2017-11-23T08:49:50.188Z,16.00
2017-11-23T08:52:20.537Z,16.00
2017-11-23T08:54:55.970Z,16.00
2017-11-23T08:57:25.578Z,16.00
2017-11-23T08:59:55.279Z,16.00
2017-11-23T09:02:25.049Z,16.10
2017-11-23T09:04:54.686Z,16.00
2017-11-23T09:07:23.915Z,16.00
2017-11-23T09:09:53.386Z,16.00
2017-11-23T09:12:23.167Z,16.00
2017-11-23T09:14:54.520Z,15.90
2017-11-23T09:17:24.045Z,15.90
2017-11-23T09:19:53.349Z,15.90
2017-11-23T09:22:22.997Z,15.90
2017-11-23T09:24:52.567Z,15.90
2017-11-23T09:27:22.294Z,15.90
2017-11-23T09:29:51.684Z,15.90
2017-11-23T09:32:21.512Z,15.90
2017-11-23T09:34:50.961Z,15.90
2017-11-23T09:37:20.278Z,15.90
2017-11-23T09:39:49.963Z,15.90
2017-11-23T09:42:20.571Z,15.90
2017-11-23T09:44:50.254Z,15.90
2017-11-23T09:47:19.755Z,15.90
2017-11-23T09:49:49.875Z,15.80
2017-11-23T09:52:19.580Z,15.80
2017-11-23T09:54:49.922Z,15.80
2017-11-23T09:57:19.733Z,15.80
2017-11-23T09:59:49.974Z,15.90
2017-11-23T10:02:19.176Z,15.90
2017-11-23T10:04:48.823Z,15.80
2017-11-23T10:07:18.067Z,15.80
2017-11-23T10:09:47.697Z,15.80
2017-11-23T10:12:17.010Z,15.90
2017-11-23T10:14:46.885Z,15.90
2017-11-23T10:17:16.555Z,15.90
2017-11-23T10:19:46.117Z,15.90
2017-11-23T10:22:15.529Z,15.90
2017-11-23T10:24:45.193Z,15.90
2017-11-23T10:27:14.498Z,16.00
2017-11-23T10:29:44.118Z,15.90
2017-11-23T10:32:13.823Z,16.00
2017-11-23T10:34:43.616Z,15.90
2017-11-23T10:37:13.993Z,15.90
2017-11-23T10:39:43.563Z,15.90
2017-11-23T10:42:12.927Z,15.90
2017-11-23T10:44:42.958Z,15.90
2017-11-23T10:47:12.280Z,15.80
2017-11-23T10:49:41.597Z,15.80
2017-11-23T10:52:11.294Z,15.80
2017-11-23T10:54:40.837Z,15.80
2017-11-23T10:57:09.719Z,15.80
2017-11-23T10:59:39.229Z,15.90
2017-11-23T11:02:08.828Z,15.90
2017-11-23T11:04:38.414Z,15.90
2017-11-23T11:07:08.287Z,15.80
2017-11-23T11:09:37.953Z,15.80
2017-11-23T11:12:07.577Z,15.80
2017-11-23T11:14:36.940Z,15.80
2017-11-23T11:17:07.217Z,15.80
2017-11-23T11:19:35.996Z,15.80
2017-11-23T11:22:05.665Z,15.70
2017-11-23T11:24:35.221Z,15.80
2017-11-23T11:27:04.540Z,15.80
2017-11-23T11:29:34.242Z,15.70
2017-11-23T11:32:05.455Z,15.70
2017-11-23T11:34:34.927Z,15.70
2017-11-23T11:37:04.585Z,15.70
2017-11-23T11:39:34.122Z,15.70
2017-11-23T11:42:03.911Z,15.70
2017-11-23T11:44:33.418Z,15.70
2017-11-23T11:47:04.445Z,15.70
2017-11-23T11:49:34.121Z,15.70
2017-11-23T11:52:03.706Z,15.80
2017-11-23T11:54:33.216Z,15.80
2017-11-23T11:57:02.349Z,15.80
2017-11-23T11:59:32.030Z,15.80
2017-11-23T12:02:01.599Z,15.80
2017-11-23T12:04:31.312Z,15.80
2017-11-23T12:07:00.568Z,15.80
2017-11-23T12:09:30.119Z,15.80
2017-11-23T12:11:59.774Z,15.90
2017-11-23T12:14:29.417Z,15.90
2017-11-23T12:17:10.082Z,15.80
2017-11-23T12:19:50.741Z,15.80
2017-11-23T12:22:31.580Z,15.70
2017-11-23T12:25:04.208Z,15.80
2017-11-23T12:27:44.930Z,15.80
2017-11-23T12:30:15.222Z,15.70
2017-11-23T12:32:44.756Z,15.70
2017-11-23T12:35:14.396Z,15.70
2017-11-23T12:37:44.032Z,15.70
2017-11-23T12:40:13.372Z,15.80
2017-11-23T12:42:43.754Z,15.70
2017-11-23T12:45:13.295Z,15.80
2017-11-23T12:47:43.446Z,15.70
2017-11-23T12:50:13.864Z,15.70
2017-11-23T12:52:43.497Z,15.70
2017-11-23T12:55:13.012Z,15.80
2017-11-23T12:57:42.731Z,15.70
2017-11-23T13:00:12.227Z,15.70
2017-11-23T13:02:41.514Z,15.70
2017-11-23T13:05:11.022Z,15.70
2017-11-23T13:07:40.437Z,15.70
2017-11-23T13:10:10.175Z,15.70
2017-11-23T13:12:40.993Z,15.70
2017-11-23T13:15:10.425Z,15.60
2017-11-23T13:17:39.919Z,15.60
2017-11-23T13:20:09.907Z,15.70
2017-11-23T13:22:39.339Z,15.70
2017-11-23T13:25:10.279Z,15.70
2017-11-23T13:27:39.729Z,15.70
2017-11-23T13:30:10.051Z,15.70
2017-11-23T13:32:39.708Z,15.70
2017-11-23T13:35:09.395Z,15.80
2017-11-23T13:37:38.810Z,15.70
2017-11-23T13:40:08.197Z,15.70
2017-11-23T13:42:37.840Z,15.70
2017-11-23T13:45:07.296Z,15.70
2017-11-23T13:47:37.527Z,15.70
2017-11-23T13:50:06.946Z,15.70
2017-11-23T13:52:36.385Z,15.70
2017-11-23T13:55:06.083Z,15.70
2017-11-23T13:57:35.615Z,15.70
2017-11-23T14:00:05.849Z,15.70
2017-11-23T14:02:35.222Z,15.70
2017-11-23T14:05:04.884Z,15.70
2017-11-23T14:07:34.510Z,15.60
2017-11-23T14:10:03.942Z,15.60
2017-11-23T14:12:33.268Z,15.60
2017-11-23T14:15:02.939Z,15.60
2017-11-23T14:17:32.401Z,15.50
2017-11-23T14:20:02.735Z,15.60
2017-11-23T14:22:32.343Z,15.60
2017-11-23T14:25:01.737Z,15.50
2017-11-23T14:27:31.355Z,15.50
2017-11-23T14:30:00.755Z,15.50
2017-11-23T14:32:30.280Z,15.50
2017-11-23T14:35:00.226Z,15.50
2017-11-23T14:37:29.549Z,15.50
2017-11-23T14:39:59.795Z,15.50
2017-11-23T14:42:34.162Z,15.50
2017-11-23T14:45:03.570Z,15.60
2017-11-23T14:47:32.928Z,15.50
2017-11-23T14:50:03.236Z,15.50
2017-11-23T14:52:32.844Z,15.50
2017-11-23T14:55:02.591Z,15.50
2017-11-23T14:57:32.195Z,15.40
2017-11-23T15:00:01.977Z,15.40
2017-11-23T15:02:31.501Z,15.50
2017-11-23T15:05:00.875Z,15.40
2017-11-23T15:07:30.338Z,15.40
2017-11-23T15:09:59.729Z,15.40
2017-11-23T15:12:29.148Z,15.40
2017-11-23T15:14:58.553Z,15.40
2017-11-23T15:17:28.052Z,15.30
2017-11-23T15:19:58.304Z,15.30
2017-11-23T15:22:29.566Z,15.20
2017-11-23T15:25:00.005Z,15.20
2017-11-23T15:27:29.464Z,15.20
2017-11-23T15:29:58.970Z,15.20
2017-11-23T15:32:28.604Z,15.20
2017-11-23T15:34:58.667Z,15.20
2017-11-23T15:37:28.041Z,15.20
2017-11-23T15:39:57.661Z,15.20
2017-11-23T15:42:27.164Z,15.20
2017-11-23T15:44:56.852Z,15.20
2017-11-23T15:47:26.507Z,15.20
2017-11-23T15:49:56.021Z,15.10
2017-11-23T15:52:26.302Z,15.20
2017-11-23T15:54:56.308Z,15.20
2017-11-23T15:57:26.665Z,15.30
2017-11-23T15:59:56.034Z,15.30
2017-11-23T16:02:25.430Z,15.20
2017-11-23T16:04:56.861Z,15.30
2017-11-23T16:07:26.493Z,15.30
2017-11-23T16:09:56.929Z,15.40
2017-11-23T16:12:26.556Z,15.40
2017-11-23T16:14:56.244Z,15.40
2017-11-23T16:17:26.525Z,15.50
2017-11-23T16:19:55.675Z,15.50
2017-11-23T16:22:26.171Z,15.60
2017-11-23T16:24:55.834Z,15.60
2017-11-23T16:27:25.410Z,15.60
2017-11-23T16:29:55.360Z,15.60
2017-11-23T16:32:25.200Z,15.60
2017-11-23T16:34:54.564Z,15.60
2017-11-23T16:37:26.952Z,15.60
2017-11-23T16:40:12.309Z,15.60
2017-11-23T16:42:46.031Z,15.60
2017-11-23T16:45:21.593Z,15.70
2017-11-23T16:47:56.632Z,15.70
2017-11-23T16:50:31.668Z,15.70
2017-11-23T16:56:18.780Z,15.80
2017-11-23T16:59:06.072Z,15.80
2017-11-23T17:01:41.115Z,15.90
2017-11-23T17:04:26.480Z,15.90
2017-11-23T17:07:12.297Z,16.00
2017-11-23T17:09:47.159Z,16.00
2017-11-23T17:12:26.348Z,15.90
2017-11-23T17:15:01.558Z,15.90
2017-11-23T17:17:48.744Z,16.00
2017-11-23T17:20:18.014Z,16.00
2017-11-23T17:22:47.481Z,16.10
2017-11-23T17:25:16.893Z,16.10
2017-11-23T17:27:47.229Z,16.20
2017-11-23T17:30:16.642Z,16.20
2017-11-23T17:32:46.412Z,16.20
2017-11-23T17:35:15.857Z,16.20
2017-11-23T17:37:45.426Z,16.30
2017-11-23T17:40:15.136Z,16.30
2017-11-23T17:42:44.881Z,16.30
2017-11-23T17:45:14.330Z,16.40
2017-11-23T17:47:44.804Z,16.50
2017-11-23T17:50:14.339Z,16.50
2017-11-23T17:52:43.984Z,16.60
2017-11-23T17:55:13.627Z,16.60
2017-11-23T17:57:43.449Z,16.70
2017-11-23T18:00:13.458Z,17.00
2017-11-23T18:02:44.476Z,17.20
2017-11-23T18:05:13.899Z,17.20
2017-11-23T18:07:43.781Z,17.50
2017-11-23T18:10:13.618Z,17.50
2017-11-23T18:17:53.120Z,18.30
2017-11-23T18:20:23.471Z,18.60
2017-11-23T18:22:52.938Z,18.70
2017-11-23T18:25:22.442Z,18.70
2017-11-23T18:27:51.824Z,18.60
2017-11-23T18:30:20.689Z,18.30
2017-11-23T18:32:49.458Z,17.80
2017-11-23T18:35:18.899Z,17.70
2017-11-23T18:37:49.451Z,17.30
2017-11-23T18:40:18.746Z,17.30
2017-11-23T18:42:49.193Z,17.20
2017-11-23T18:45:19.572Z,17.30
2017-11-23T18:47:48.971Z,17.30
2017-11-23T18:50:18.966Z,17.30
2017-11-23T18:52:48.100Z,17.10
2017-11-23T18:55:17.769Z,17.00
2017-11-23T18:57:47.278Z,16.90
2017-11-23T19:00:16.826Z,16.80
2017-11-23T19:02:46.288Z,16.80
2017-11-23T19:05:15.853Z,16.90
2017-11-23T19:07:45.439Z,17.00
2017-11-23T19:10:14.834Z,17.50
2017-11-23T19:12:44.423Z,18.00
2017-11-23T19:15:14.058Z,18.20
2017-11-23T19:17:46.377Z,18.40
2017-11-23T19:20:15.254Z,18.60
2017-11-23T19:22:44.756Z,18.90
2017-11-23T19:25:14.148Z,18.90
2017-11-23T19:27:43.740Z,18.80
2017-11-23T19:30:14.475Z,18.70
2017-11-23T19:32:43.686Z,18.70
2017-11-23T19:35:13.482Z,18.70
2017-11-23T19:37:43.076Z,18.80
2017-11-23T19:40:11.858Z,18.80
2017-11-23T19:42:40.672Z,18.60
2017-11-23T19:45:10.223Z,18.60
2017-11-23T19:47:39.581Z,18.50
2017-11-23T19:50:08.923Z,18.40
2017-11-23T19:52:38.590Z,18.40
2017-11-23T19:55:08.808Z,18.40
2017-11-23T19:57:38.347Z,18.40
2017-11-23T20:00:08.540Z,18.60
2017-11-23T20:02:37.410Z,18.50
2017-11-23T20:05:07.239Z,18.70
2017-11-23T20:07:36.842Z,18.70
2017-11-23T20:10:06.476Z,19.00
2017-11-23T20:12:36.169Z,19.00
2017-11-23T20:15:06.293Z,18.90
2017-11-23T20:17:35.753Z,18.90
2017-11-23T20:20:05.109Z,19.00
2017-11-23T20:22:35.321Z,19.00
2017-11-23T20:25:05.325Z,19.10
2017-11-23T20:27:34.909Z,19.10
2017-11-23T20:30:04.409Z,19.20
2017-11-23T20:32:33.941Z,19.30
2017-11-23T20:35:04.435Z,19.30
2017-11-23T20:37:33.722Z,19.30
2017-11-23T20:40:03.230Z,19.30
2017-11-23T20:42:32.661Z,19.40
2017-11-23T20:45:01.995Z,19.30
2017-11-23T20:47:31.673Z,19.20
2017-11-23T20:50:00.977Z,19.20
2017-11-23T20:52:30.645Z,19.10
2017-11-23T20:55:00.076Z,19.00
2017-11-23T20:57:30.340Z,18.90
2017-11-23T21:00:01.969Z,18.90
2017-11-23T21:02:32.459Z,18.80
2017-11-23T21:05:02.094Z,18.70
2017-11-23T21:07:32.216Z,18.60
2017-11-23T21:10:02.183Z,18.40
2017-11-23T21:12:31.622Z,18.10
2017-11-23T21:15:00.838Z,18.00
2017-11-23T21:17:30.124Z,17.90
2017-11-23T21:19:59.525Z,17.80
2017-11-23T21:22:29.204Z,17.80
2017-11-23T21:24:58.680Z,17.60
2017-11-23T21:27:28.416Z,17.70
2017-11-23T21:29:59.277Z,17.60
2017-11-23T21:32:29.524Z,17.60
2017-11-23T21:34:58.600Z,17.60
2017-11-23T21:37:27.390Z,17.40
2017-11-23T21:39:56.722Z,17.40
2017-11-23T21:42:28.256Z,17.60
2017-11-23T21:44:58.306Z,17.70
2017-11-23T21:47:27.710Z,17.70
2017-11-23T21:49:57.050Z,17.70
2017-11-23T21:52:28.036Z,17.70
2017-11-23T21:54:58.362Z,17.50
2017-11-23T21:57:27.113Z,17.50
2017-11-23T21:59:57.604Z,17.30
2017-11-23T22:02:27.298Z,17.20
2017-11-23T22:04:57.040Z,17.10
2017-11-23T22:07:26.671Z,17.10
2017-11-23T22:09:56.198Z,17.00
2017-11-23T22:12:25.579Z,16.90
2017-11-23T22:14:55.207Z,16.80
2017-11-23T22:17:24.137Z,16.80
2017-11-23T22:19:54.743Z,16.70
2017-11-23T22:22:24.110Z,16.70
2017-11-23T22:24:53.446Z,16.60
2017-11-23T22:27:22.946Z,16.50
2017-11-23T22:29:52.627Z,16.50
2017-11-23T22:32:25.950Z,16.50
2017-11-23T22:34:54.693Z,16.50
2017-11-23T22:37:24.847Z,16.50
2017-11-23T22:42:28.442Z,16.40
2017-11-23T22:44:58.590Z,16.20
2017-11-23T22:47:28.040Z,16.20
2017-11-23T22:49:57.409Z,16.20
2017-11-23T22:52:27.078Z,16.30
2017-11-23T22:54:56.613Z,16.30
2017-11-23T22:57:25.462Z,16.40
2017-11-23T22:59:55.005Z,15.90
2017-11-23T23:02:25.006Z,15.90
2017-11-23T23:04:54.539Z,15.90
2017-11-23T23:07:24.447Z,15.90
2017-11-23T23:09:54.159Z,15.80
2017-11-23T23:12:23.416Z,15.80
2017-11-23T23:14:53.587Z,15.60
2017-11-23T23:17:22.633Z,15.60
2017-11-23T23:19:52.670Z,15.70
2017-11-23T23:22:22.188Z,15.60
2017-11-23T23:24:52.114Z,15.60
2017-11-23T23:27:24.107Z,15.60
2017-11-23T23:29:53.673Z,15.60
2017-11-23T23:32:23.267Z,15.60
2017-11-23T23:34:52.889Z,15.40
2017-11-23T23:37:23.252Z,15.40
2017-11-23T23:39:52.919Z,15.50
2017-11-23T23:42:23.152Z,15.50
2017-11-23T23:44:52.848Z,15.50
2017-11-23T23:47:22.201Z,15.60
2017-11-23T23:49:51.976Z,15.60
2017-11-23T23:52:21.456Z,15.60
2017-11-23T23:54:50.854Z,15.60
2017-11-23T23:57:20.375Z,15.20
2017-11-23T23:59:50.278Z,15.20
